sensor_id;sensor_type;location;lat;lon;timestamp;temperature;humidity
1123;DHT22;548;48.778;9.252;2023-03-01T10:34:34;9.90;76.10
1123;DHT22;548;48.778;9.252;2023-03-01T10:37:17;13.50;62.20
1123;DHT22;548;48.778;9.252;2023-03-01T10:40:01;13.00;61.50
1123;DHT22;548;48.778;9.252;2023-03-01T10:42:33;12.40;62.70
1123;DHT22;548;48.778;9.252;2023-03-01T10:45:16;11.90;64.10
1123;DHT22;548;48.778;9.252;2023-03-01T10:48:04;12.50;64.00
1123;DHT22;548;48.778;9.252;2023-03-01T10:50:32;12.60;62.40
1123;DHT22;548;48.778;9.252;2023-03-01T10:53:00;12.50;63.20
1123;DHT22;548;48.778;9.252;2023-03-01T10:55:31;12.90;62.30
1123;DHT22;548;48.778;9.252;2023-03-01T10:58:08;12.90;61.20
1123;DHT22;548;48.778;9.252;2023-03-01T11:00:46;12.80;62.00
1123;DHT22;548;48.778;9.252;2023-03-01T11:03:15;12.80;62.10
1123;DHT22;548;48.778;9.252;2023-03-01T11:05:57;12.60;61.20
1123;DHT22;548;48.778;9.252;2023-03-01T11:08:39;12.70;62.20
1123;DHT22;548;48.778;9.252;2023-03-01T11:11:14;13.30;60.70
1123;DHT22;548;48.778;9.252;2023-03-01T11:13:55;14.10;60.00
1123;DHT22;548;48.778;9.252;2023-03-01T11:16:32;14.10;58.90
1123;DHT22;548;48.778;9.252;2023-03-01T11:21:51;15.40;57.10
1123;DHT22;548;48.778;9.252;2023-03-01T11:24:19;15.40;57.00
1123;DHT22;548;48.778;9.252;2023-03-01T11:26:53;14.30;56.40
1123;DHT22;548;48.778;9.252;2023-03-01T11:29:27;13.90;57.70
1123;DHT22;548;48.778;9.252;2023-03-01T11:31:57;13.50;57.70
1123;DHT22;548;48.778;9.252;2023-03-01T11:34:36;13.70;58.60
1123;DHT22;548;48.778;9.252;2023-03-01T11:37:12;14.00;57.20
1123;DHT22;548;48.778;9.252;2023-03-01T11:39:46;13.70;57.50
1123;DHT22;548;48.778;9.252;2023-03-01T11:42:18;13.70;58.10
1123;DHT22;548;48.778;9.252;2023-03-01T11:44:49;14.10;58.00
1123;DHT22;548;48.778;9.252;2023-03-01T11:47:29;15.20;55.80
1123;DHT22;548;48.778;9.252;2023-03-01T11:50:15;15.20;55.60
1123;DHT22;548;48.778;9.252;2023-03-01T11:52:52;15.00;55.60
1123;DHT22;548;48.778;9.252;2023-03-01T11:55:30;14.90;55.10
1123;DHT22;548;48.778;9.252;2023-03-01T11:58:14;14.60;56.40
1123;DHT22;548;48.778;9.252;2023-03-01T12:01:00;14.50;55.90
1123;DHT22;548;48.778;9.252;2023-03-01T12:03:37;15.20;55.60
1123;DHT22;548;48.778;9.252;2023-03-01T12:06:35;14.60;55.30
1123;DHT22;548;48.778;9.252;2023-03-01T12:09:17;14.50;55.80
1123;DHT22;548;48.778;9.252;2023-03-01T12:12:08;14.60;57.10
1123;DHT22;548;48.778;9.252;2023-03-01T12:14:55;14.40;56.10
1123;DHT22;548;48.778;9.252;2023-03-01T12:17:44;14.90;55.80
1123;DHT22;548;48.778;9.252;2023-03-01T12:20:21;15.10;55.10
1123;DHT22;548;48.778;9.252;2023-03-01T12:23:02;15.30;55.60
1123;DHT22;548;48.778;9.252;2023-03-01T12:25:35;14.70;55.30
1123;DHT22;548;48.778;9.252;2023-03-01T12:31:23;14.70;54.70
1123;DHT22;548;48.778;9.252;2023-03-01T12:33:58;15.20;54.50
1123;DHT22;548;48.778;9.252;2023-03-01T12:36:41;15.20;54.50
1123;DHT22;548;48.778;9.252;2023-03-01T12:39:21;14.90;54.40
1123;DHT22;548;48.778;9.252;2023-03-01T12:41:59;14.50;55.30
1123;DHT22;548;48.778;9.252;2023-03-01T12:44:38;14.20;55.70
1123;DHT22;548;48.778;9.252;2023-03-01T12:47:18;13.80;56.10
1123;DHT22;548;48.778;9.252;2023-03-01T12:49:50;14.00;57.00
1123;DHT22;548;48.778;9.252;2023-03-01T12:52:23;14.20;56.80
1123;DHT22;548;48.778;9.252;2023-03-01T12:54:55;14.50;56.10
1123;DHT22;548;48.778;9.252;2023-03-01T12:57:34;15.00;56.70
1123;DHT22;548;48.778;9.252;2023-03-01T13:00:18;14.90;55.90
1123;DHT22;548;48.778;9.252;2023-03-01T13:02:55;14.70;55.40
1123;DHT22;548;48.778;9.252;2023-03-01T13:05:34;14.30;55.60
1123;DHT22;548;48.778;9.252;2023-03-01T13:08:08;14.80;56.10
1123;DHT22;548;48.778;9.252;2023-03-01T13:10:42;14.40;56.20
1123;DHT22;548;48.778;9.252;2023-03-01T13:13:19;14.30;56.60
1123;DHT22;548;48.778;9.252;2023-03-01T13:15:46;13.90;57.70
1123;DHT22;548;48.778;9.252;2023-03-01T13:18:31;14.60;57.30
1123;DHT22;548;48.778;9.252;2023-03-01T13:21:01;14.50;57.00
1123;DHT22;548;48.778;9.252;2023-03-01T13:23:31;15.00;56.60
1123;DHT22;548;48.778;9.252;2023-03-01T13:26:08;14.70;55.80
1123;DHT22;548;48.778;9.252;2023-03-01T13:28:41;14.50;56.40
1123;DHT22;548;48.778;9.252;2023-03-01T13:34:39;13.90;57.40
1123;DHT22;548;48.778;9.252;2023-03-01T13:37:18;13.90;57.10
1123;DHT22;548;48.778;9.252;2023-03-01T13:39:45;14.00;57.20
1123;DHT22;548;48.778;9.252;2023-03-01T13:42:37;13.50;57.60
1123;DHT22;548;48.778;9.252;2023-03-01T13:45:17;12.70;58.20
1123;DHT22;548;48.778;9.252;2023-03-01T13:47:45;12.20;59.50
1123;DHT22;548;48.778;9.252;2023-03-01T13:50:19;11.50;61.10
1123;DHT22;548;48.778;9.252;2023-03-01T13:52:50;10.90;64.00
1123;DHT22;548;48.778;9.252;2023-03-01T13:55:20;10.50;65.60
1123;DHT22;548;48.778;9.252;2023-03-01T13:57:50;10.20;67.20
1123;DHT22;548;48.778;9.252;2023-03-01T14:00:30;9.90;69.50
1123;DHT22;548;48.778;9.252;2023-03-01T14:03:02;9.70;70.90
1123;DHT22;548;48.778;9.252;2023-03-01T14:05:30;9.70;72.20
1123;DHT22;548;48.778;9.252;2023-03-01T14:07:56;9.80;72.70
1123;DHT22;548;48.778;9.252;2023-03-01T14:10:26;9.60;73.30
1123;DHT22;548;48.778;9.252;2023-03-01T14:13:01;9.50;73.90
1123;DHT22;548;48.778;9.252;2023-03-01T14:15:35;9.40;74.40
1123;DHT22;548;48.778;9.252;2023-03-01T14:18:08;9.50;74.50
1123;DHT22;548;48.778;9.252;2023-03-01T14:20:40;9.50;75.10
1123;DHT22;548;48.778;9.252;2023-03-01T14:23:11;9.60;75.20
1123;DHT22;548;48.778;9.252;2023-03-01T14:25:38;9.60;75.40
1123;DHT22;548;48.778;9.252;2023-03-01T14:28:16;9.40;76.20
1123;DHT22;548;48.778;9.252;2023-03-01T14:30:46;9.40;76.00
1123;DHT22;548;48.778;9.252;2023-03-01T14:33:22;9.40;75.50
1123;DHT22;548;48.778;9.252;2023-03-01T14:35:54;9.50;76.40
1123;DHT22;548;48.778;9.252;2023-03-01T14:38:22;9.50;74.60
1123;DHT22;548;48.778;9.252;2023-03-01T14:40:51;9.30;75.30
1123;DHT22;548;48.778;9.252;2023-03-01T14:43:22;9.30;75.20
1123;DHT22;548;48.778;9.252;2023-03-01T14:45:51;9.10;75.60
1123;DHT22;548;48.778;9.252;2023-03-01T14:48:18;9.20;76.60
1123;DHT22;548;48.778;9.252;2023-03-01T14:50:46;9.30;76.20
1123;DHT22;548;48.778;9.252;2023-03-01T14:53:17;9.30;76.70
1123;DHT22;548;48.778;9.252;2023-03-01T14:55:47;9.40;77.20
1123;DHT22;548;48.778;9.252;2023-03-01T14:58:18;9.40;76.10
1123;DHT22;548;48.778;9.252;2023-03-01T15:00:49;9.40;76.80
1123;DHT22;548;48.778;9.252;2023-03-01T15:03:23;9.40;77.50
1123;DHT22;548;48.778;9.252;2023-03-01T15:05:51;9.40;77.00
1123;DHT22;548;48.778;9.252;2023-03-01T15:08:20;9.40;77.40
1123;DHT22;548;48.778;9.252;2023-03-01T15:10:58;9.30;77.00
1123;DHT22;548;48.778;9.252;2023-03-01T15:13:28;9.30;77.10
1123;DHT22;548;48.778;9.252;2023-03-01T15:16:02;9.20;78.30
1123;DHT22;548;48.778;9.252;2023-03-01T15:18:32;9.20;77.90
1123;DHT22;548;48.778;9.252;2023-03-01T15:21:07;9.10;77.60
1123;DHT22;548;48.778;9.252;2023-03-01T15:23:34;9.10;77.80
1123;DHT22;548;48.778;9.252;2023-03-01T15:26:03;9.10;78.10
1123;DHT22;548;48.778;9.252;2023-03-01T15:28:32;9.10;78.50
1123;DHT22;548;48.778;9.252;2023-03-01T15:31:02;9.10;78.10
1123;DHT22;548;48.778;9.252;2023-03-01T15:33:35;9.20;78.10
1123;DHT22;548;48.778;9.252;2023-03-01T15:36:29;9.10;78.70
1123;DHT22;548;48.778;9.252;2023-03-01T15:38:54;9.10;78.70
1123;DHT22;548;48.778;9.252;2023-03-01T15:41:23;9.10;78.70
1123;DHT22;548;48.778;9.252;2023-03-01T15:43:51;9.00;78.20
1123;DHT22;548;48.778;9.252;2023-03-01T15:46:25;8.90;78.40
1123;DHT22;548;48.778;9.252;2023-03-01T15:48:55;8.90;79.50
1123;DHT22;548;48.778;9.252;2023-03-01T15:51:28;8.90;79.20
1123;DHT22;548;48.778;9.252;2023-03-01T15:53:59;8.80;79.60
1123;DHT22;548;48.778;9.252;2023-03-01T15:56:27;8.70;80.00
1123;DHT22;548;48.778;9.252;2023-03-01T15:58:58;8.70;79.90
1123;DHT22;548;48.778;9.252;2023-03-01T16:01:25;8.70;80.20
1123;DHT22;548;48.778;9.252;2023-03-01T16:03:52;8.60;79.70
1123;DHT22;548;48.778;9.252;2023-03-01T16:06:19;8.60;79.80
1123;DHT22;548;48.778;9.252;2023-03-01T16:08:45;8.50;79.80
1123;DHT22;548;48.778;9.252;2023-03-01T16:11:16;8.50;80.50
1123;DHT22;548;48.778;9.252;2023-03-01T16:13:44;8.40;80.20
1123;DHT22;548;48.778;9.252;2023-03-01T16:16:12;8.40;80.50
1123;DHT22;548;48.778;9.252;2023-03-01T16:18:41;8.30;80.50
1123;DHT22;548;48.778;9.252;2023-03-01T16:21:11;8.30;80.60
1123;DHT22;548;48.778;9.252;2023-03-01T16:23:38;8.20;81.10
1123;DHT22;548;48.778;9.252;2023-03-01T16:26:05;8.20;80.70
1123;DHT22;548;48.778;9.252;2023-03-01T16:28:33;8.10;80.60
1123;DHT22;548;48.778;9.252;2023-03-01T16:31:00;8.10;80.70
1123;DHT22;548;48.778;9.252;2023-03-01T16:33:27;8.10;80.70
1123;DHT22;548;48.778;9.252;2023-03-01T16:35:53;8.00;80.80
1123;DHT22;548;48.778;9.252;2023-03-01T16:38:20;8.00;81.30
1123;DHT22;548;48.778;9.252;2023-03-01T16:40:48;7.90;81.10
1123;DHT22;548;48.778;9.252;2023-03-01T16:43:15;7.90;81.50
1123;DHT22;548;48.778;9.252;2023-03-01T16:45:43;7.80;81.90
1123;DHT22;548;48.778;9.252;2023-03-01T16:48:11;7.70;82.40
1123;DHT22;548;48.778;9.252;2023-03-01T16:50:38;7.80;82.00
1123;DHT22;548;48.778;9.252;2023-03-01T16:53:05;7.70;82.10
1123;DHT22;548;48.778;9.252;2023-03-01T16:55:32;7.70;83.00
1123;DHT22;548;48.778;9.252;2023-03-01T16:57:59;7.50;83.10
1123;DHT22;548;48.778;9.252;2023-03-01T17:00:26;7.50;84.00
1123;DHT22;548;48.778;9.252;2023-03-01T17:02:54;7.40;84.20
1123;DHT22;548;48.778;9.252;2023-03-01T17:05:21;7.30;84.90
1123;DHT22;548;48.778;9.252;2023-03-01T17:07:49;7.20;85.60
1123;DHT22;548;48.778;9.252;2023-03-01T17:10:16;7.10;86.20
1123;DHT22;548;48.778;9.252;2023-03-01T17:12:42;7.10;87.10
1123;DHT22;548;48.778;9.252;2023-03-01T17:15:09;6.90;87.30
1123;DHT22;548;48.778;9.252;2023-03-01T17:17:38;6.80;88.80
1123;DHT22;548;48.778;9.252;2023-03-01T17:20:08;6.70;89.50
1123;DHT22;548;48.778;9.252;2023-03-01T17:22:35;6.60;90.00
1123;DHT22;548;48.778;9.252;2023-03-01T17:25:02;6.60;90.50
1123;DHT22;548;48.778;9.252;2023-03-01T17:27:28;6.70;90.30
1123;DHT22;548;48.778;9.252;2023-03-01T17:29:59;6.80;90.00
1123;DHT22;548;48.778;9.252;2023-03-01T17:32:26;6.80;90.00
1123;DHT22;548;48.778;9.252;2023-03-01T17:34:53;6.70;90.40
1123;DHT22;548;48.778;9.252;2023-03-01T17:37:21;6.70;90.80
1123;DHT22;548;48.778;9.252;2023-03-01T17:39:47;6.60;91.10
1123;DHT22;548;48.778;9.252;2023-03-01T17:42:14;6.40;91.80
1123;DHT22;548;48.778;9.252;2023-03-01T17:44:41;6.30;92.60
1123;DHT22;548;48.778;9.252;2023-03-01T17:47:09;6.30;93.20
1123;DHT22;548;48.778;9.252;2023-03-01T17:49:36;6.20;93.40
1123;DHT22;548;48.778;9.252;2023-03-01T17:52:03;6.00;94.00
1123;DHT22;548;48.778;9.252;2023-03-01T17:54:31;5.90;94.70
1123;DHT22;548;48.778;9.252;2023-03-01T17:56:58;5.70;95.20
